sensor_id;sensor_type;location;lat;lon;timestamp;P1;durP1;ratioP1;P2;durP2;ratioP2
42702;SDS011;28341;52.064;4.920;2023-05-10T00:00:19;95.18;;;53.80;;
42702;SDS011;28341;52.064;4.920;2023-05-10T00:02:24;93.15;;;51.50;;
42702;SDS011;28341;52.064;4.920;2023-05-10T00:04:28;90.90;;;51.20;;
42702;SDS011;28341;52.064;4.920;2023-05-10T00:06:32;84.72;;;49.60;;
42702;SDS011;28341;52.064;4.920;2023-05-10T00:08:37;88.22;;;50.15;;
42702;SDS011;28341;52.064;4.920;2023-05-10T00:10:42;85.70;;;49.88;;
42702;SDS011;28341;52.064;4.920;2023-05-10T00:12:46;94.65;;;50.25;;
42702;SDS011;28341;52.064;4.920;2023-05-10T00:14:50;93.25;;;50.53;;
42702;SDS011;28341;52.064;4.920;2023-05-10T00:16:57;93.15;;;49.58;;
42702;SDS011;28341;52.064;4.920;2023-05-10T00:19:01;92.82;;;48.83;;
42702;SDS011;28341;52.064;4.920;2023-05-10T00:21:06;93.28;;;48.72;;
42702;SDS011;28341;52.064;4.920;2023-05-10T00:23:10;89.05;;;49.05;;
42702;SDS011;28341;52.064;4.920;2023-05-10T00:25:14;91.97;;;49.00;;
42702;SDS011;28341;52.064;4.920;2023-05-10T00:27:19;88.13;;;48.92;;
42702;SDS011;28341;52.064;4.920;2023-05-10T00:29:23;88.47;;;47.70;;
42702;SDS011;28341;52.064;4.920;2023-05-10T00:31:28;87.95;;;46.70;;
42702;SDS011;28341;52.064;4.920;2023-05-10T00:33:35;83.65;;;45.35;;
42702;SDS011;28341;52.064;4.920;2023-05-10T00:35:40;81.38;;;44.83;;
42702;SDS011;28341;52.064;4.920;2023-05-10T00:37:44;82.85;;;43.30;;
42702;SDS011;28341;52.064;4.920;2023-05-10T00:39:48;87.25;;;45.45;;
42702;SDS011;28341;52.064;4.920;2023-05-10T00:41:53;86.68;;;44.58;;
42702;SDS011;28341;52.064;4.920;2023-05-10T00:43:58;94.70;;;46.38;;
42702;SDS011;28341;52.064;4.920;2023-05-10T00:46:03;91.47;;;44.38;;
42702;SDS011;28341;52.064;4.920;2023-05-10T00:48:07;92.20;;;46.03;;
42702;SDS011;28341;52.064;4.920;2023-05-10T00:50:14;97.45;;;47.58;;
42702;SDS011;28341;52.064;4.920;2023-05-10T00:52:19;102.25;;;47.45;;
42702;SDS011;28341;52.064;4.920;2023-05-10T00:54:23;99.25;;;47.88;;
42702;SDS011;28341;52.064;4.920;2023-05-10T00:56:28;103.53;;;48.90;;
42702;SDS011;28341;52.064;4.920;2023-05-10T00:58:32;105.95;;;48.65;;
42702;SDS011;28341;52.064;4.920;2023-05-10T01:00:37;112.30;;;51.13;;
42702;SDS011;28341;52.064;4.920;2023-05-10T01:02:42;101.28;;;48.88;;
42702;SDS011;28341;52.064;4.920;2023-05-10T01:04:46;102.50;;;48.00;;
42702;SDS011;28341;52.064;4.920;2023-05-10T01:06:54;97.80;;;47.80;;
42702;SDS011;28341;52.064;4.920;2023-05-10T01:08:59;105.50;;;50.53;;
42702;SDS011;28341;52.064;4.920;2023-05-10T01:11:03;98.15;;;46.58;;
42702;SDS011;28341;52.064;4.920;2023-05-10T01:13:08;100.07;;;47.30;;
42702;SDS011;28341;52.064;4.920;2023-05-10T01:15:13;106.72;;;47.80;;
42702;SDS011;28341;52.064;4.920;2023-05-10T01:17:19;113.25;;;49.25;;
42702;SDS011;28341;52.064;4.920;2023-05-10T01:19:24;111.22;;;50.47;;
42702;SDS011;28341;52.064;4.920;2023-05-10T01:21:33;111.97;;;49.10;;
42702;SDS011;28341;52.064;4.920;2023-05-10T01:23:50;112.75;;;49.65;;
42702;SDS011;28341;52.064;4.920;2023-05-10T01:31:39;123.97;;;51.15;;
42702;SDS011;28341;52.064;4.920;2023-05-10T01:34:21;121.03;;;50.80;;
42702;SDS011;28341;52.064;4.920;2023-05-10T01:36:31;117.82;;;50.00;;
42702;SDS011;28341;52.064;4.920;2023-05-10T01:38:41;124.63;;;53.85;;
42702;SDS011;28341;52.064;4.920;2023-05-10T01:40:52;119.93;;;51.17;;
42702;SDS011;28341;52.064;4.920;2023-05-10T01:43:08;117.78;;;52.90;;
42702;SDS011;28341;52.064;4.920;2023-05-10T01:45:21;118.85;;;53.65;;
42702;SDS011;28341;52.064;4.920;2023-05-10T01:47:36;131.85;;;59.92;;
42702;SDS011;28341;52.064;4.920;2023-05-10T01:49:45;137.88;;;61.97;;
42702;SDS011;28341;52.064;4.920;2023-05-10T01:51:53;130.68;;;61.40;;
42702;SDS011;28341;52.064;4.920;2023-05-10T01:54:01;133.45;;;63.90;;
42702;SDS011;28341;52.064;4.920;2023-05-10T01:56:06;137.27;;;65.85;;
42702;SDS011;28341;52.064;4.920;2023-05-10T01:58:12;134.43;;;63.15;;
42702;SDS011;28341;52.064;4.920;2023-05-10T02:00:20;151.60;;;68.68;;
42702;SDS011;28341;52.064;4.920;2023-05-10T02:02:25;152.88;;;69.25;;
42702;SDS011;28341;52.064;4.920;2023-05-10T02:04:34;146.88;;;67.72;;
42702;SDS011;28341;52.064;4.920;2023-05-10T02:06:39;138.73;;;64.47;;
42702;SDS011;28341;52.064;4.920;2023-05-10T02:08:44;148.02;;;66.43;;
42702;SDS011;28341;52.064;4.920;2023-05-10T02:10:50;152.40;;;66.88;;
42702;SDS011;28341;52.064;4.920;2023-05-10T02:12:58;142.25;;;65.95;;
42702;SDS011;28341;52.064;4.920;2023-05-10T02:15:04;134.45;;;62.30;;
42702;SDS011;28341;52.064;4.920;2023-05-10T02:17:10;134.20;;;61.50;;
42702;SDS011;28341;52.064;4.920;2023-05-10T02:19:15;128.30;;;59.97;;
42702;SDS011;28341;52.064;4.920;2023-05-10T02:21:23;129.77;;;59.75;;
42702;SDS011;28341;52.064;4.920;2023-05-10T02:23:27;122.50;;;58.45;;
42702;SDS011;28341;52.064;4.920;2023-05-10T02:25:32;125.60;;;56.05;;
42702;SDS011;28341;52.064;4.920;2023-05-10T02:27:36;135.80;;;60.10;;
42702;SDS011;28341;52.064;4.920;2023-05-10T02:29:42;137.30;;;60.05;;
42702;SDS011;28341;52.064;4.920;2023-05-10T02:31:46;138.43;;;58.88;;
42702;SDS011;28341;52.064;4.920;2023-05-10T02:33:51;129.13;;;59.33;;
42702;SDS011;28341;52.064;4.920;2023-05-10T02:35:57;131.13;;;59.63;;
42702;SDS011;28341;52.064;4.920;2023-05-10T02:38:04;134.00;;;58.22;;
42702;SDS011;28341;52.064;4.920;2023-05-10T02:40:09;124.25;;;57.40;;
42702;SDS011;28341;52.064;4.920;2023-05-10T02:42:15;138.35;;;61.10;;
42702;SDS011;28341;52.064;4.920;2023-05-10T02:44:22;139.45;;;61.50;;
42702;SDS011;28341;52.064;4.920;2023-05-10T02:46:27;125.93;;;58.80;;
42702;SDS011;28341;52.064;4.920;2023-05-10T02:48:31;123.45;;;58.88;;
42702;SDS011;28341;52.064;4.920;2023-05-10T02:50:35;129.68;;;60.35;;
42702;SDS011;28341;52.064;4.920;2023-05-10T02:52:42;127.15;;;59.40;;
42702;SDS011;28341;52.064;4.920;2023-05-10T02:54:55;122.85;;;60.95;;
42702;SDS011;28341;52.064;4.920;2023-05-10T02:57:03;119.78;;;57.35;;
42702;SDS011;28341;52.064;4.920;2023-05-10T02:59:08;125.15;;;59.50;;
42702;SDS011;28341;52.064;4.920;2023-05-10T03:01:12;116.05;;;59.13;;
42702;SDS011;28341;52.064;4.920;2023-05-10T03:03:16;121.65;;;61.25;;
42702;SDS011;28341;52.064;4.920;2023-05-10T03:05:23;120.25;;;61.13;;
42702;SDS011;28341;52.064;4.920;2023-05-10T03:07:28;120.22;;;61.25;;
42702;SDS011;28341;52.064;4.920;2023-05-10T03:09:33;120.07;;;59.35;;
42702;SDS011;28341;52.064;4.920;2023-05-10T03:11:43;118.28;;;62.65;;
42702;SDS011;28341;52.064;4.920;2023-05-10T03:13:56;111.50;;;59.85;;
42702;SDS011;28341;52.064;4.920;2023-05-10T03:16:12;109.50;;;57.72;;
42702;SDS011;28341;52.064;4.920;2023-05-10T03:18:21;115.45;;;60.30;;
42702;SDS011;28341;52.064;4.920;2023-05-10T03:20:29;111.85;;;61.25;;
42702;SDS011;28341;52.064;4.920;2023-05-10T03:22:40;113.70;;;59.40;;
42702;SDS011;28341;52.064;4.920;2023-05-10T03:24:48;114.45;;;61.22;;
42702;SDS011;28341;52.064;4.920;2023-05-10T03:26:56;111.10;;;60.17;;
42702;SDS011;28341;52.064;4.920;2023-05-10T03:29:03;119.55;;;63.45;;
42702;SDS011;28341;52.064;4.920;2023-05-10T03:31:08;121.68;;;62.80;;
42702;SDS011;28341;52.064;4.920;2023-05-10T03:33:13;123.82;;;64.85;;
42702;SDS011;28341;52.064;4.920;2023-05-10T03:35:20;113.82;;;62.40;;
42702;SDS011;28341;52.064;4.920;2023-05-10T03:37:24;116.63;;;62.47;;
42702;SDS011;28341;52.064;4.920;2023-05-10T03:39:29;113.10;;;61.45;;
42702;SDS011;28341;52.064;4.920;2023-05-10T03:41:35;113.93;;;61.08;;
42702;SDS011;28341;52.064;4.920;2023-05-10T03:43:42;120.13;;;62.17;;
42702;SDS011;28341;52.064;4.920;2023-05-10T03:45:46;112.18;;;60.47;;
42702;SDS011;28341;52.064;4.920;2023-05-10T03:47:50;102.80;;;56.75;;
42702;SDS011;28341;52.064;4.920;2023-05-10T03:49:55;103.72;;;55.60;;
42702;SDS011;28341;52.064;4.920;2023-05-10T03:52:00;108.88;;;57.30;;
42702;SDS011;28341;52.064;4.920;2023-05-10T03:54:05;101.57;;;54.33;;
42702;SDS011;28341;52.064;4.920;2023-05-10T03:56:09;104.25;;;55.90;;
42702;SDS011;28341;52.064;4.920;2023-05-10T03:58:13;106.60;;;58.00;;
42702;SDS011;28341;52.064;4.920;2023-05-10T04:00:21;103.10;;;58.70;;
42702;SDS011;28341;52.064;4.920;2023-05-10T04:02:28;112.32;;;63.22;;
42702;SDS011;28341;52.064;4.920;2023-05-10T04:04:34;117.15;;;67.47;;
42702;SDS011;28341;52.064;4.920;2023-05-10T04:06:39;129.05;;;73.10;;
42702;SDS011;28341;52.064;4.920;2023-05-10T04:08:43;112.65;;;62.15;;
42702;SDS011;28341;52.064;4.920;2023-05-10T04:10:47;105.47;;;59.83;;
42702;SDS011;28341;52.064;4.920;2023-05-10T04:12:51;104.25;;;60.35;;
42702;SDS011;28341;52.064;4.920;2023-05-10T04:14:56;99.30;;;56.25;;
42702;SDS011;28341;52.064;4.920;2023-05-10T04:17:03;100.68;;;58.03;;
42702;SDS011;28341;52.064;4.920;2023-05-10T04:19:07;100.68;;;55.25;;
42702;SDS011;28341;52.064;4.920;2023-05-10T04:21:11;100.28;;;56.92;;
42702;SDS011;28341;52.064;4.920;2023-05-10T04:23:16;106.60;;;59.67;;
42702;SDS011;28341;52.064;4.920;2023-05-10T04:25:20;114.93;;;59.88;;
42702;SDS011;28341;52.064;4.920;2023-05-10T04:27:25;115.30;;;61.72;;
42702;SDS011;28341;52.064;4.920;2023-05-10T04:29:29;112.68;;;62.38;;
42702;SDS011;28341;52.064;4.920;2023-05-10T04:31:34;117.40;;;65.25;;
42702;SDS011;28341;52.064;4.920;2023-05-10T04:33:41;109.63;;;62.90;;
42702;SDS011;28341;52.064;4.920;2023-05-10T04:35:46;109.68;;;63.45;;
42702;SDS011;28341;52.064;4.920;2023-05-10T04:37:50;114.50;;;66.40;;
42702;SDS011;28341;52.064;4.920;2023-05-10T04:39:54;108.00;;;61.47;;
42702;SDS011;28341;52.064;4.920;2023-05-10T04:42:00;113.60;;;65.55;;
42702;SDS011;28341;52.064;4.920;2023-05-10T04:44:06;105.97;;;61.38;;
42702;SDS011;28341;52.064;4.920;2023-05-10T04:46:10;111.38;;;62.47;;
42702;SDS011;28341;52.064;4.920;2023-05-10T04:48:14;100.68;;;58.90;;
42702;SDS011;28341;52.064;4.920;2023-05-10T04:50:21;98.82;;;62.40;;
42702;SDS011;28341;52.064;4.920;2023-05-10T04:52:26;113.03;;;64.35;;
42702;SDS011;28341;52.064;4.920;2023-05-10T04:54:30;106.22;;;61.30;;
42702;SDS011;28341;52.064;4.920;2023-05-10T04:56:35;110.97;;;63.25;;
42702;SDS011;28341;52.064;4.920;2023-05-10T04:58:39;108.50;;;65.90;;
42702;SDS011;28341;52.064;4.920;2023-05-10T05:00:43;115.68;;;67.78;;
42702;SDS011;28341;52.064;4.920;2023-05-10T05:02:48;126.22;;;70.95;;
42702;SDS011;28341;52.064;4.920;2023-05-10T05:04:52;124.63;;;70.38;;
42702;SDS011;28341;52.064;4.920;2023-05-10T05:07:01;123.20;;;69.57;;
42702;SDS011;28341;52.064;4.920;2023-05-10T05:09:05;119.25;;;65.13;;
42702;SDS011;28341;52.064;4.920;2023-05-10T05:11:10;116.57;;;64.78;;
42702;SDS011;28341;52.064;4.920;2023-05-10T05:13:14;109.80;;;62.90;;
42702;SDS011;28341;52.064;4.920;2023-05-10T05:15:19;113.80;;;65.40;;
42702;SDS011;28341;52.064;4.920;2023-05-10T05:17:23;111.90;;;63.05;;
42702;SDS011;28341;52.064;4.920;2023-05-10T05:19:28;114.10;;;62.60;;
42702;SDS011;28341;52.064;4.920;2023-05-10T05:21:34;112.13;;;65.07;;
42702;SDS011;28341;52.064;4.920;2023-05-10T05:23:41;107.15;;;62.03;;
42702;SDS011;28341;52.064;4.920;2023-05-10T05:25:46;99.45;;;56.72;;
42702;SDS011;28341;52.064;4.920;2023-05-10T05:27:50;94.30;;;56.50;;
42702;SDS011;28341;52.064;4.920;2023-05-10T05:29:55;77.90;;;47.17;;
42702;SDS011;28341;52.064;4.920;2023-05-10T05:31:59;80.13;;;45.53;;
42702;SDS011;28341;52.064;4.920;2023-05-10T05:34:04;71.15;;;44.35;;
42702;SDS011;28341;52.064;4.920;2023-05-10T05:36:08;63.60;;;40.17;;
42702;SDS011;28341;52.064;4.920;2023-05-10T05:38:13;57.00;;;37.78;;
42702;SDS011;28341;52.064;4.920;2023-05-10T05:40:20;64.45;;;38.10;;
42702;SDS011;28341;52.064;4.920;2023-05-10T05:42:24;57.88;;;36.22;;
42702;SDS011;28341;52.064;4.920;2023-05-10T05:44:28;62.78;;;35.38;;
42702;SDS011;28341;52.064;4.920;2023-05-10T05:46:33;56.95;;;34.13;;
42702;SDS011;28341;52.064;4.920;2023-05-10T05:48:37;60.13;;;34.85;;
42702;SDS011;28341;52.064;4.920;2023-05-10T05:50:42;59.85;;;33.63;;
42702;SDS011;28341;52.064;4.920;2023-05-10T05:52:46;58.08;;;35.50;;
42702;SDS011;28341;52.064;4.920;2023-05-10T05:54:50;54.58;;;34.38;;
42702;SDS011;28341;52.064;4.920;2023-05-10T05:56:57;55.22;;;34.08;;
42702;SDS011;28341;52.064;4.920;2023-05-10T05:59:03;58.25;;;40.80;;
42702;SDS011;28341;52.064;4.920;2023-05-10T06:01:07;81.97;;;59.10;;
42702;SDS011;28341;52.064;4.920;2023-05-10T06:03:11;45.78;;;28.45;;
42702;SDS011;28341;52.064;4.920;2023-05-10T06:05:16;51.72;;;28.73;;
42702;SDS011;28341;52.064;4.920;2023-05-10T06:07:20;40.17;;;25.17;;
42702;SDS011;28341;52.064;4.920;2023-05-10T06:09:25;38.83;;;24.70;;
42702;SDS011;28341;52.064;4.920;2023-05-10T06:11:29;40.58;;;25.13;;
42702;SDS011;28341;52.064;4.920;2023-05-10T06:13:37;37.95;;;24.08;;
42702;SDS011;28341;52.064;4.920;2023-05-10T06:15:42;39.75;;;23.77;;
42702;SDS011;28341;52.064;4.920;2023-05-10T06:17:47;39.67;;;24.83;;
42702;SDS011;28341;52.064;4.920;2023-05-10T06:19:51;35.83;;;23.25;;
42702;SDS011;28341;52.064;4.920;2023-05-10T06:21:56;36.80;;;25.20;;
42702;SDS011;28341;52.064;4.920;2023-05-10T06:24:00;42.22;;;26.88;;
42702;SDS011;28341;52.064;4.920;2023-05-10T06:26:05;39.42;;;25.17;;
42702;SDS011;28341;52.064;4.920;2023-05-10T06:28:10;137.50;;;115.03;;
42702;SDS011;28341;52.064;4.920;2023-05-10T06:30:17;94.30;;;71.93;;
42702;SDS011;28341;52.064;4.920;2023-05-10T06:32:23;64.15;;;37.15;;
42702;SDS011;28341;52.064;4.920;2023-05-10T06:34:27;32.72;;;22.48;;
42702;SDS011;28341;52.064;4.920;2023-05-10T06:36:32;31.92;;;20.00;;
42702;SDS011;28341;52.064;4.920;2023-05-10T06:38:36;38.70;;;23.58;;
42702;SDS011;28341;52.064;4.920;2023-05-10T06:40:41;36.15;;;21.23;;
42702;SDS011;28341;52.064;4.920;2023-05-10T06:42:45;36.60;;;21.52;;
42702;SDS011;28341;52.064;4.920;2023-05-10T06:44:50;32.42;;;20.17;;
42702;SDS011;28341;52.064;4.920;2023-05-10T06:46:56;33.97;;;19.63;;
42702;SDS011;28341;52.064;4.920;2023-05-10T06:49:01;32.38;;;19.10;;
42702;SDS011;28341;52.064;4.920;2023-05-10T06:51:05;31.92;;;20.20;;
42702;SDS011;28341;52.064;4.920;2023-05-10T06:53:09;30.17;;;18.15;;
42702;SDS011;28341;52.064;4.920;2023-05-10T06:55:13;25.92;;;17.20;;
42702;SDS011;28341;52.064;4.920;2023-05-10T06:57:17;28.50;;;17.25;;
42702;SDS011;28341;52.064;4.920;2023-05-10T06:59:22;24.67;;;16.70;;
42702;SDS011;28341;52.064;4.920;2023-05-10T07:01:26;24.75;;;16.42;;
42702;SDS011;28341;52.064;4.920;2023-05-10T07:03:33;25.17;;;16.50;;
42702;SDS011;28341;52.064;4.920;2023-05-10T07:05:37;27.83;;;17.20;;
42702;SDS011;28341;52.064;4.920;2023-05-10T07:07:42;25.10;;;15.55;;
42702;SDS011;28341;52.064;4.920;2023-05-10T07:09:46;22.27;;;15.85;;
42702;SDS011;28341;52.064;4.920;2023-05-10T07:11:51;22.25;;;15.40;;
42702;SDS011;28341;52.064;4.920;2023-05-10T07:13:57;23.00;;;16.60;;
42702;SDS011;28341;52.064;4.920;2023-05-10T07:16:01;25.00;;;17.00;;
42702;SDS011;28341;52.064;4.920;2023-05-10T07:18:06;24.52;;;15.98;;
42702;SDS011;28341;52.064;4.920;2023-05-10T07:20:13;23.88;;;15.23;;
42702;SDS011;28341;52.064;4.920;2023-05-10T07:22:18;22.23;;;14.82;;
42702;SDS011;28341;52.064;4.920;2023-05-10T07:24:22;22.85;;;16.23;;
42702;SDS011;28341;52.064;4.920;2023-05-10T07:26:27;31.25;;;26.08;;
42702;SDS011;28341;52.064;4.920;2023-05-10T07:28:31;23.10;;;15.63;;
42702;SDS011;28341;52.064;4.920;2023-05-10T07:30:37;21.35;;;15.00;;
42702;SDS011;28341;52.064;4.920;2023-05-10T07:32:42;20.13;;;14.00;;
42702;SDS011;28341;52.064;4.920;2023-05-10T07:34:46;21.80;;;13.18;;
42702;SDS011;28341;52.064;4.920;2023-05-10T07:36:53;18.70;;;12.80;;
42702;SDS011;28341;52.064;4.920;2023-05-10T07:38:57;19.33;;;12.45;;
42702;SDS011;28341;52.064;4.920;2023-05-10T07:41:02;16.65;;;11.57;;
42702;SDS011;28341;52.064;4.920;2023-05-10T07:43:06;15.30;;;11.60;;
42702;SDS011;28341;52.064;4.920;2023-05-10T07:45:11;18.10;;;11.32;;
42702;SDS011;28341;52.064;4.920;2023-05-10T07:47:15;14.65;;;10.98;;
42702;SDS011;28341;52.064;4.920;2023-05-10T07:49:19;15.05;;;10.10;;
42702;SDS011;28341;52.064;4.920;2023-05-10T07:51:25;15.18;;;9.30;;
42702;SDS011;28341;52.064;4.920;2023-05-10T07:53:32;11.57;;;8.88;;
42702;SDS011;28341;52.064;4.920;2023-05-10T07:55:36;13.23;;;9.25;;
42702;SDS011;28341;52.064;4.920;2023-05-10T07:57:41;14.32;;;10.38;;
42702;SDS011;28341;52.064;4.920;2023-05-10T07:59:45;15.23;;;10.30;;
42702;SDS011;28341;52.064;4.920;2023-05-10T08:01:50;12.45;;;9.68;;
42702;SDS011;28341;52.064;4.920;2023-05-10T08:03:54;12.60;;;8.38;;
42702;SDS011;28341;52.064;4.920;2023-05-10T08:05:58;10.10;;;8.43;;
42702;SDS011;28341;52.064;4.920;2023-05-10T08:08:03;10.40;;;7.57;;
42702;SDS011;28341;52.064;4.920;2023-05-10T08:10:10;9.88;;;7.32;;
42702;SDS011;28341;52.064;4.920;2023-05-10T08:12:15;11.25;;;7.07;;
42702;SDS011;28341;52.064;4.920;2023-05-10T08:14:19;8.57;;;6.63;;
42702;SDS011;28341;52.064;4.920;2023-05-10T08:16:23;8.15;;;6.25;;
42702;SDS011;28341;52.064;4.920;2023-05-10T08:18:29;11.25;;;7.10;;
42702;SDS011;28341;52.064;4.920;2023-05-10T08:20:33;10.20;;;7.38;;
42702;SDS011;28341;52.064;4.920;2023-05-10T08:22:37;13.50;;;8.32;;
42702;SDS011;28341;52.064;4.920;2023-05-10T08:24:42;10.93;;;8.25;;
42702;SDS011;28341;52.064;4.920;2023-05-10T08:26:48;13.07;;;8.13;;
42702;SDS011;28341;52.064;4.920;2023-05-10T08:28:53;11.43;;;8.48;;
42702;SDS011;28341;52.064;4.920;2023-05-10T08:30:57;8.90;;;7.80;;
42702;SDS011;28341;52.064;4.920;2023-05-10T08:33:01;9.40;;;7.72;;
42702;SDS011;28341;52.064;4.920;2023-05-10T08:35:06;10.57;;;8.23;;
42702;SDS011;28341;52.064;4.920;2023-05-10T08:37:11;9.68;;;7.63;;
42702;SDS011;28341;52.064;4.920;2023-05-10T08:39:15;11.05;;;7.15;;
42702;SDS011;28341;52.064;4.920;2023-05-10T08:41:20;7.20;;;6.35;;
42702;SDS011;28341;52.064;4.920;2023-05-10T08:43:28;8.48;;;6.53;;
42702;SDS011;28341;52.064;4.920;2023-05-10T08:45:36;9.90;;;7.22;;
42702;SDS011;28341;52.064;4.920;2023-05-10T08:47:42;9.68;;;7.65;;
42702;SDS011;28341;52.064;4.920;2023-05-10T08:49:47;10.77;;;8.13;;
42702;SDS011;28341;52.064;4.920;2023-05-10T08:51:52;9.13;;;7.53;;
42702;SDS011;28341;52.064;4.920;2023-05-10T08:53:58;10.13;;;7.30;;
42702;SDS011;28341;52.064;4.920;2023-05-10T08:56:03;8.30;;;7.00;;
42702;SDS011;28341;52.064;4.920;2023-05-10T08:58:09;8.00;;;6.88;;
42702;SDS011;28341;52.064;4.920;2023-05-10T09:00:16;10.35;;;7.13;;
42702;SDS011;28341;52.064;4.920;2023-05-10T09:02:23;9.10;;;6.50;;
42702;SDS011;28341;52.064;4.920;2023-05-10T09:04:27;9.25;;;6.72;;
42702;SDS011;28341;52.064;4.920;2023-05-10T09:06:31;7.88;;;6.22;;
42702;SDS011;28341;52.064;4.920;2023-05-10T09:08:37;9.57;;;6.68;;
42702;SDS011;28341;52.064;4.920;2023-05-10T09:10:42;9.52;;;7.05;;
42702;SDS011;28341;52.064;4.920;2023-05-10T09:12:47;7.60;;;6.35;;
42702;SDS011;28341;52.064;4.920;2023-05-10T09:14:52;7.82;;;6.15;;
42702;SDS011;28341;52.064;4.920;2023-05-10T09:17:00;8.30;;;6.38;;
42702;SDS011;28341;52.064;4.920;2023-05-10T09:19:04;7.43;;;6.47;;
42702;SDS011;28341;52.064;4.920;2023-05-10T09:21:09;8.52;;;6.85;;
42702;SDS011;28341;52.064;4.920;2023-05-10T09:23:14;9.35;;;7.00;;
42702;SDS011;28341;52.064;4.920;2023-05-10T09:25:18;7.97;;;6.75;;
42702;SDS011;28341;52.064;4.920;2023-05-10T09:27:26;8.45;;;6.88;;
42702;SDS011;28341;52.064;4.920;2023-05-10T09:29:38;11.52;;;7.80;;
42702;SDS011;28341;52.064;4.920;2023-05-10T09:31:43;8.23;;;6.75;;
42702;SDS011;28341;52.064;4.920;2023-05-10T09:33:54;9.40;;;7.20;;
42702;SDS011;28341;52.064;4.920;2023-05-10T09:36:05;12.23;;;7.07;;
42702;SDS011;28341;52.064;4.920;2023-05-10T09:38:11;12.65;;;8.35;;
42702;SDS011;28341;52.064;4.920;2023-05-10T09:40:16;12.13;;;7.28;;
42702;SDS011;28341;52.064;4.920;2023-05-10T09:42:21;14.25;;;8.00;;
42702;SDS011;28341;52.064;4.920;2023-05-10T09:44:27;9.82;;;6.70;;
42702;SDS011;28341;52.064;4.920;2023-05-10T09:46:34;8.85;;;7.07;;
42702;SDS011;28341;52.064;4.920;2023-05-10T09:48:40;13.10;;;8.20;;
42702;SDS011;28341;52.064;4.920;2023-05-10T09:50:50;11.18;;;7.20;;
42702;SDS011;28341;52.064;4.920;2023-05-10T09:53:01;9.98;;;6.60;;
42702;SDS011;28341;52.064;4.920;2023-05-10T09:55:07;9.98;;;7.05;;
42702;SDS011;28341;52.064;4.920;2023-05-10T09:57:18;9.98;;;6.75;;
42702;SDS011;28341;52.064;4.920;2023-05-10T09:59:24;13.52;;;7.03;;
42702;SDS011;28341;52.064;4.920;2023-05-10T10:01:29;10.65;;;6.80;;
42702;SDS011;28341;52.064;4.920;2023-05-10T10:03:34;11.10;;;5.95;;
42702;SDS011;28341;52.064;4.920;2023-05-10T10:05:40;9.27;;;6.40;;
42702;SDS011;28341;52.064;4.920;2023-05-10T10:07:48;10.73;;;6.88;;
42702;SDS011;28341;52.064;4.920;2023-05-10T10:09:52;10.23;;;6.50;;
42702;SDS011;28341;52.064;4.920;2023-05-10T10:11:57;10.02;;;6.82;;
42702;SDS011;28341;52.064;4.920;2023-05-10T10:14:02;11.75;;;7.28;;
42702;SDS011;28341;52.064;4.920;2023-05-10T10:16:06;10.80;;;7.30;;
42702;SDS011;28341;52.064;4.920;2023-05-10T10:18:12;10.18;;;7.50;;
42702;SDS011;28341;52.064;4.920;2023-05-10T10:20:18;9.20;;;6.40;;
42702;SDS011;28341;52.064;4.920;2023-05-10T10:22:23;8.02;;;6.68;;
42702;SDS011;28341;52.064;4.920;2023-05-10T10:24:40;10.75;;;6.50;;
42702;SDS011;28341;52.064;4.920;2023-05-10T10:26:45;9.48;;;6.90;;
42702;SDS011;28341;52.064;4.920;2023-05-10T10:28:51;11.63;;;6.85;;
42702;SDS011;28341;52.064;4.920;2023-05-10T10:35:46;9.57;;;6.03;;
42702;SDS011;28341;52.064;4.920;2023-05-10T10:37:51;10.52;;;5.75;;
42702;SDS011;28341;52.064;4.920;2023-05-10T10:39:58;7.50;;;5.90;;
42702;SDS011;28341;52.064;4.920;2023-05-10T10:42:03;6.72;;;5.35;;
42702;SDS011;28341;52.064;4.920;2023-05-10T10:49:18;8.70;;;5.90;;
42702;SDS011;28341;52.064;4.920;2023-05-10T10:51:23;12.57;;;6.38;;
42702;SDS011;28341;52.064;4.920;2023-05-10T10:53:27;10.13;;;6.75;;
42702;SDS011;28341;52.064;4.920;2023-05-10T10:55:34;9.23;;;5.90;;
42702;SDS011;28341;52.064;4.920;2023-05-10T10:57:45;8.00;;;5.90;;
42702;SDS011;28341;52.064;4.920;2023-05-10T10:59:51;7.00;;;5.30;;
42702;SDS011;28341;52.064;4.920;2023-05-10T11:02:23;8.05;;;5.75;;
42702;SDS011;28341;52.064;4.920;2023-05-10T11:04:46;6.78;;;4.70;;
42702;SDS011;28341;52.064;4.920;2023-05-10T11:06:50;8.70;;;5.82;;
42702;SDS011;28341;52.064;4.920;2023-05-10T11:08:54;5.97;;;4.57;;
42702;SDS011;28341;52.064;4.920;2023-05-10T11:11:05;7.97;;;4.95;;
42702;SDS011;28341;52.064;4.920;2023-05-10T11:13:10;5.35;;;3.80;;
42702;SDS011;28341;52.064;4.920;2023-05-10T11:15:14;5.55;;;3.65;;
42702;SDS011;28341;52.064;4.920;2023-05-10T11:17:24;5.70;;;3.75;;
42702;SDS011;28341;52.064;4.920;2023-05-10T11:19:29;5.47;;;3.88;;
42702;SDS011;28341;52.064;4.920;2023-05-10T11:21:34;5.38;;;4.00;;
42702;SDS011;28341;52.064;4.920;2023-05-10T11:23:49;7.63;;;4.38;;
42702;SDS011;28341;52.064;4.920;2023-05-10T11:25:56;5.80;;;5.25;;
42702;SDS011;28341;52.064;4.920;2023-05-10T11:28:03;11.32;;;6.43;;
42702;SDS011;28341;52.064;4.920;2023-05-10T11:32:14;9.68;;;7.53;;
42702;SDS011;28341;52.064;4.920;2023-05-10T11:34:25;8.25;;;6.50;;
42702;SDS011;28341;52.064;4.920;2023-05-10T11:36:32;7.72;;;6.07;;
42702;SDS011;28341;52.064;4.920;2023-05-10T11:38:38;7.00;;;5.97;;
42702;SDS011;28341;52.064;4.920;2023-05-10T11:40:42;6.90;;;6.00;;
42702;SDS011;28341;52.064;4.920;2023-05-10T11:42:46;7.35;;;6.50;;
42702;SDS011;28341;52.064;4.920;2023-05-10T11:44:53;7.20;;;6.50;;
42702;SDS011;28341;52.064;4.920;2023-05-10T11:46:58;8.32;;;7.38;;
42702;SDS011;28341;52.064;4.920;2023-05-10T11:49:03;8.75;;;7.15;;
42702;SDS011;28341;52.064;4.920;2023-05-10T11:51:07;9.25;;;7.20;;
42702;SDS011;28341;52.064;4.920;2023-05-10T11:53:12;9.05;;;7.57;;
42702;SDS011;28341;52.064;4.920;2023-05-10T11:55:16;15.48;;;10.90;;
42702;SDS011;28341;52.064;4.920;2023-05-10T11:57:25;16.58;;;10.60;;
42702;SDS011;28341;52.064;4.920;2023-05-10T11:59:31;16.65;;;10.63;;
42702;SDS011;28341;52.064;4.920;2023-05-10T12:01:38;19.40;;;11.40;;
42702;SDS011;28341;52.064;4.920;2023-05-10T12:03:42;20.75;;;11.45;;
42702;SDS011;28341;52.064;4.920;2023-05-10T12:05:46;18.30;;;11.75;;
42702;SDS011;28341;52.064;4.920;2023-05-10T12:07:50;20.42;;;12.45;;
42702;SDS011;28341;52.064;4.920;2023-05-10T12:10:06;18.75;;;12.65;;
42702;SDS011;28341;52.064;4.920;2023-05-10T12:12:15;18.27;;;13.68;;
42702;SDS011;28341;52.064;4.920;2023-05-10T12:14:20;21.52;;;14.80;;
42702;SDS011;28341;52.064;4.920;2023-05-10T12:16:26;27.20;;;16.10;;
42702;SDS011;28341;52.064;4.920;2023-05-10T12:18:34;29.05;;;17.35;;
42702;SDS011;28341;52.064;4.920;2023-05-10T12:20:43;26.08;;;15.55;;
42702;SDS011;28341;52.064;4.920;2023-05-10T12:22:48;29.73;;;17.30;;
42702;SDS011;28341;52.064;4.920;2023-05-10T12:24:54;30.52;;;18.45;;
42702;SDS011;28341;52.064;4.920;2023-05-10T12:26:58;30.65;;;17.75;;
42702;SDS011;28341;52.064;4.920;2023-05-10T12:29:12;29.73;;;18.23;;
42702;SDS011;28341;52.064;4.920;2023-05-10T12:31:17;34.88;;;19.00;;
42702;SDS011;28341;52.064;4.920;2023-05-10T12:33:21;25.95;;;18.30;;
42702;SDS011;28341;52.064;4.920;2023-05-10T12:35:28;28.35;;;18.73;;